createdAt,value
2018-05-31T00:01:26.012Z,10.62
2018-05-31T00:07:20.965Z,9.17
2018-05-31T00:13:15.971Z,9.07
2018-05-31T00:19:11.034Z,9.33
2018-05-31T00:25:06.016Z,9.7
2018-05-31T00:31:01.065Z,10.04
2018-05-31T00:36:56.032Z,10.86
2018-05-31T00:42:51.020Z,9.71
2018-05-31T00:48:46.044Z,10.22
2018-05-31T00:54:41.010Z,9.89
2018-05-31T01:00:36.029Z,9.48
2018-05-31T01:06:31.050Z,10.7
2018-05-31T01:12:26.012Z,10.29
2018-05-31T01:18:21.028Z,11.14
2018-05-31T01:24:16.050Z,11.07
2018-05-31T01:30:11.021Z,10.64
2018-05-31T01:36:06.075Z,10.48
2018-05-31T01:42:01.072Z,10.83
2018-05-31T01:47:56.040Z,9.37
2018-05-31T01:53:51.050Z,9.67
2018-05-31T01:59:46.081Z,9.57
2018-05-31T02:05:41.084Z,9.57
2018-05-31T02:11:36.055Z,9.76
2018-05-31T02:17:31.070Z,8.94
2018-05-31T02:23:26.090Z,8.8
2018-05-31T02:29:21.069Z,8.94
2018-05-31T02:35:16.072Z,9.63
2018-05-31T02:41:11.114Z,8.87
2018-05-31T02:47:06.087Z,9.11
2018-05-31T02:53:01.144Z,8.13
2018-05-31T02:58:56.094Z,8.89
2018-05-31T03:04:51.113Z,8.08
2018-05-31T03:10:46.097Z,8.73
2018-05-31T03:16:41.140Z,7.77
2018-05-31T03:22:36.120Z,6.87
2018-05-31T03:28:31.141Z,8.48
2018-05-31T03:34:26.450Z,7.6
2018-05-31T03:40:21.132Z,6.58
2018-05-31T03:46:16.148Z,7.34
2018-05-31T03:52:11.138Z,6.17
2018-05-31T03:58:06.117Z,6.5
2018-05-31T04:04:01.117Z,6.06
2018-05-31T04:09:56.121Z,7.18
2018-05-31T04:15:51.147Z,7.57
2018-05-31T04:21:46.120Z,6.84
2018-05-31T04:27:41.175Z,7.17
2018-05-31T04:33:36.248Z,6.54
2018-05-31T04:39:31.175Z,5.97
2018-05-31T04:45:26.179Z,7.37
2018-05-31T04:51:21.157Z,7.81
2018-05-31T04:57:16.165Z,7.14
2018-05-31T05:03:11.156Z,7.12
2018-05-31T05:09:06.190Z,7.54
2018-05-31T05:15:01.220Z,6.77
2018-05-31T05:20:56.174Z,7.55
2018-05-31T05:26:51.203Z,7.55
2018-05-31T05:32:46.196Z,8.96
2018-05-31T05:38:41.289Z,7.89
2018-05-31T05:44:36.257Z,9.84
2018-05-31T05:50:31.232Z,10.41
2018-05-31T05:56:26.224Z,9.53
2018-05-31T06:02:21.237Z,9.05
2018-05-31T06:08:16.245Z,9.02
2018-05-31T06:14:11.245Z,8.24
2018-05-31T06:20:06.270Z,8.32
2018-05-31T06:26:01.269Z,8.18
2018-05-31T06:31:56.242Z,8.18
2018-05-31T06:37:51.267Z,7.3
2018-05-31T06:43:46.346Z,7.92
2018-05-31T06:49:41.350Z,7.9
2018-05-31T06:55:36.307Z,9.5
2018-05-31T07:01:31.295Z,12
2018-05-31T07:07:26.295Z,13.53
2018-05-31T07:13:21.283Z,12.37
2018-05-31T07:19:16.323Z,13.74
2018-05-31T07:25:11.305Z,12.27
2018-05-31T07:31:06.281Z,12.71
2018-05-31T07:37:01.329Z,9.78
2018-05-31T07:42:56.335Z,7.77
2018-05-31T07:48:51.419Z,7.43
2018-05-31T07:54:46.325Z,6.95
2018-05-31T08:00:41.337Z,7.6
2018-05-31T08:06:36.322Z,7.28
2018-05-31T08:12:31.300Z,7.95
2018-05-31T08:18:26.335Z,8.71
2018-05-31T08:24:21.310Z,7.6
2018-05-31T08:30:16.376Z,7.24
2018-05-31T08:36:11.350Z,7.8
2018-05-31T08:42:06.374Z,8.8
2018-05-31T08:48:01.333Z,9.19
2018-05-31T08:53:56.384Z,9.88
2018-05-31T08:59:51.359Z,11.25
2018-05-31T09:05:46.414Z,11.38
2018-05-31T09:11:41.427Z,11.11
2018-05-31T09:17:36.389Z,13.33
2018-05-31T09:23:31.359Z,12.78
2018-05-31T09:29:26.416Z,14.04
2018-05-31T09:35:21.407Z,12.77
2018-05-31T09:41:16.400Z,13.89
2018-05-31T09:47:11.405Z,12.72
2018-05-31T09:53:06.429Z,13.75
2018-05-31T09:59:01.404Z,13.67
2018-05-31T10:04:56.498Z,14.62
2018-05-31T10:10:51.469Z,16.98
2018-05-31T10:16:46.533Z,13.87
2018-05-31T10:22:41.451Z,11.56
2018-05-31T10:28:36.436Z,11.19
2018-05-31T10:34:31.449Z,11.37
2018-05-31T10:40:26.457Z,14.39
2018-05-31T10:46:21.423Z,14.44
2018-05-31T10:52:16.433Z,14.03
2018-05-31T10:58:11.422Z,14.33
2018-05-31T11:04:06.885Z,11.72
2018-05-31T11:10:01.568Z,9.37
2018-05-31T11:15:56.492Z,9.51
2018-05-31T11:21:51.452Z,8.16
2018-05-31T11:27:46.456Z,9.92
2018-05-31T11:33:41.505Z,9.41
2018-05-31T11:39:36.462Z,8.52
2018-05-31T11:45:31.442Z,7.87
2018-05-31T11:51:26.496Z,7.78
2018-05-31T11:57:21.487Z,7.42
2018-05-31T12:03:16.459Z,7.36
2018-05-31T12:09:11.496Z,7.07
2018-05-31T12:15:06.541Z,7.31
2018-05-31T12:21:01.594Z,6.97
2018-05-31T12:26:56.537Z,6.5
2018-05-31T12:32:51.482Z,7.33
2018-05-31T12:38:46.473Z,7.7
2018-05-31T12:44:41.516Z,7.94
2018-05-31T12:50:36.528Z,7.2
2018-05-31T12:56:31.784Z,6.53
2018-05-31T13:02:26.530Z,7.55
2018-05-31T13:08:21.529Z,7.32
2018-05-31T13:14:16.538Z,6.76
2018-05-31T13:20:11.799Z,6.71
2018-05-31T13:26:06.576Z,7.31
2018-05-31T13:32:01.538Z,6.13
2018-05-31T13:37:56.582Z,7.42
2018-05-31T13:43:51.565Z,7.22
2018-05-31T13:49:46.563Z,7.04
2018-05-31T13:55:41.567Z,7.29
2018-05-31T14:01:36.595Z,7.04
2018-05-31T14:07:31.574Z,7.4
2018-05-31T14:13:26.566Z,6.91
2018-05-31T14:19:21.625Z,6.42
2018-05-31T14:25:16.640Z,7.44
2018-05-31T14:31:11.594Z,6.68
2018-05-31T14:37:06.607Z,7.62
2018-05-31T14:43:01.583Z,7.7
2018-05-31T14:48:56.573Z,7.25
2018-05-31T14:54:51.641Z,8.02
2018-05-31T15:00:46.601Z,7.52
2018-05-31T15:06:41.642Z,7.88
2018-05-31T15:12:36.631Z,7.29
2018-05-31T15:18:31.610Z,7.13
2018-05-31T15:24:26.614Z,6.95
2018-05-31T15:30:21.718Z,6.71
2018-05-31T15:36:16.624Z,6.21
2018-05-31T15:42:11.636Z,6.68
2018-05-31T15:48:06.633Z,6.44
2018-05-31T15:54:01.642Z,6.57
2018-05-31T15:59:56.673Z,6.48
2018-05-31T16:05:51.690Z,6.01
2018-05-31T16:11:46.740Z,6.35
2018-05-31T16:17:41.696Z,6.33
2018-05-31T16:23:36.681Z,6.85
2018-05-31T16:29:31.658Z,7.03
2018-05-31T16:35:26.674Z,7.44
2018-05-31T16:41:21.777Z,6.61
2018-05-31T16:47:16.692Z,6.99
2018-05-31T16:53:11.712Z,7.68
2018-05-31T16:59:06.728Z,7.02
2018-05-31T17:05:01.886Z,7.77
2018-05-31T17:10:56.723Z,8.18
2018-05-31T17:16:51.714Z,8.23
2018-05-31T17:22:46.763Z,8.35
2018-05-31T17:28:41.714Z,8.33
2018-05-31T17:34:36.774Z,8.57
2018-05-31T17:40:31.730Z,8.1
2018-05-31T17:46:26.751Z,7.86
2018-05-31T17:52:21.759Z,8.12
2018-05-31T17:58:16.764Z,8.11
2018-05-31T18:04:11.818Z,9.58
2018-05-31T18:10:06.728Z,8.13
2018-05-31T18:16:01.771Z,8.02
2018-05-31T18:21:56.776Z,8.76
2018-05-31T18:27:51.752Z,9.15
2018-05-31T18:33:46.767Z,9.11
2018-05-31T18:39:41.783Z,9.79
2018-05-31T18:45:36.767Z,9.15
2018-05-31T18:51:31.801Z,9.61
2018-05-31T18:57:26.783Z,8.98
2018-05-31T19:03:21.779Z,9.95
2018-05-31T19:09:16.820Z,9.26
2018-05-31T19:15:11.817Z,9.27
2018-05-31T19:21:06.820Z,9.04
2018-05-31T19:27:01.863Z,8.26
2018-05-31T19:32:56.806Z,10.05
2018-05-31T19:38:51.787Z,10.13
2018-05-31T19:44:46.828Z,9.88
2018-05-31T19:50:41.863Z,10.59
2018-05-31T19:56:36.828Z,9.99
2018-05-31T20:02:31.868Z,10.17
2018-05-31T20:08:26.866Z,9.41
2018-05-31T20:14:21.843Z,8.81
2018-05-31T20:20:16.825Z,8.79
2018-05-31T20:26:11.850Z,7.38
2018-05-31T20:32:06.856Z,8.44
2018-05-31T20:38:01.931Z,8.13
2018-05-31T20:43:56.824Z,7.76
2018-05-31T20:49:51.846Z,7.87
2018-05-31T20:55:46.869Z,8.63
2018-05-31T21:01:41.895Z,8.11
2018-05-31T21:07:36.963Z,8.4
2018-05-31T21:13:31.871Z,8.53
2018-05-31T21:19:26.875Z,8.43
2018-05-31T21:25:21.907Z,9.3
2018-05-31T21:31:16.870Z,9.22
2018-05-31T21:37:11.867Z,9.1
2018-05-31T21:43:06.891Z,8.72
2018-05-31T21:49:01.892Z,8.88
2018-05-31T21:54:56.912Z,8.92
2018-05-31T22:00:51.903Z,8.44
2018-05-31T22:06:46.939Z,8.89
2018-05-31T22:12:41.934Z,8.85
2018-05-31T22:18:36.921Z,7.82
2018-05-31T22:24:31.955Z,8.42
2018-05-31T22:30:26.939Z,8.96
2018-05-31T22:36:21.958Z,7.44
2018-05-31T22:42:16.939Z,9.25
2018-05-31T22:48:11.953Z,8.28
2018-05-31T22:54:06.931Z,9.14
2018-05-31T23:00:01.962Z,9.36
2018-05-31T23:05:56.974Z,9.13
2018-05-31T23:11:51.963Z,8.89
2018-05-31T23:17:46.936Z,9.21
2018-05-31T23:23:41.966Z,9.11
2018-05-31T23:29:37.034Z,8.46
2018-05-31T23:35:31.994Z,8.28
2018-05-31T23:41:26.996Z,8.07
2018-05-31T23:47:21.956Z,8.12
2018-05-31T23:53:16.957Z,8.31
2018-05-31T23:59:12.015Z,9.19
